sensor_id;sensor_type;location;lat;lon;timestamp;P1;durP1;ratioP1;P2;durP2;ratioP2
29044;SDS011;16133;49.486;12.176;2022-11-06T00:00:17;15.23;;;8.38;;
29044;SDS011;16133;49.486;12.176;2022-11-06T00:02:43;15.07;;;8.70;;
29044;SDS011;16133;49.486;12.176;2022-11-06T00:05:09;14.50;;;7.78;;
29044;SDS011;16133;49.486;12.176;2022-11-06T00:07:53;15.20;;;7.72;;
29044;SDS011;16133;49.486;12.176;2022-11-06T00:10:19;22.42;;;9.75;;
29044;SDS011;16133;49.486;12.176;2022-11-06T00:12:44;19.88;;;9.73;;
29044;SDS011;16133;49.486;12.176;2022-11-06T00:15:10;22.75;;;10.05;;
29044;SDS011;16133;49.486;12.176;2022-11-06T00:17:37;19.00;;;9.50;;
29044;SDS011;16133;49.486;12.176;2022-11-06T00:20:03;24.23;;;11.13;;
29044;SDS011;16133;49.486;12.176;2022-11-06T00:22:36;16.60;;;9.75;;
29044;SDS011;16133;49.486;12.176;2022-11-06T00:25:02;23.35;;;11.50;;
29044;SDS011;16133;49.486;12.176;2022-11-06T00:27:29;23.95;;;10.70;;
29044;SDS011;16133;49.486;12.176;2022-11-06T00:29:54;20.48;;;9.90;;
29044;SDS011;16133;49.486;12.176;2022-11-06T00:32:20;25.73;;;12.02;;
29044;SDS011;16133;49.486;12.176;2022-11-06T00:34:46;28.45;;;12.48;;
29044;SDS011;16133;49.486;12.176;2022-11-06T00:37:12;26.02;;;11.60;;
29044;SDS011;16133;49.486;12.176;2022-11-06T00:39:38;26.70;;;12.02;;
29044;SDS011;16133;49.486;12.176;2022-11-06T00:42:03;24.30;;;11.70;;
29044;SDS011;16133;49.486;12.176;2022-11-06T00:44:28;26.60;;;13.02;;
29044;SDS011;16133;49.486;12.176;2022-11-06T00:46:54;26.02;;;13.10;;
29044;SDS011;16133;49.486;12.176;2022-11-06T00:49:19;29.67;;;12.38;;
29044;SDS011;16133;49.486;12.176;2022-11-06T00:51:45;21.88;;;11.32;;
29044;SDS011;16133;49.486;12.176;2022-11-06T00:54:11;23.20;;;10.98;;
29044;SDS011;16133;49.486;12.176;2022-11-06T00:56:37;28.48;;;12.00;;
29044;SDS011;16133;49.486;12.176;2022-11-06T00:59:03;31.50;;;12.63;;
29044;SDS011;16133;49.486;12.176;2022-11-06T01:01:31;26.38;;;12.05;;
29044;SDS011;16133;49.486;12.176;2022-11-06T01:04:10;26.08;;;12.32;;
29044;SDS011;16133;49.486;12.176;2022-11-06T01:06:42;25.73;;;12.00;;
29044;SDS011;16133;49.486;12.176;2022-11-06T01:09:10;26.48;;;11.45;;
29044;SDS011;16133;49.486;12.176;2022-11-06T01:11:41;26.35;;;11.82;;
29044;SDS011;16133;49.486;12.176;2022-11-06T01:14:10;25.70;;;12.23;;
29044;SDS011;16133;49.486;12.176;2022-11-06T01:16:37;25.00;;;12.00;;
29044;SDS011;16133;49.486;12.176;2022-11-06T01:19:03;25.02;;;11.30;;
29044;SDS011;16133;49.486;12.176;2022-11-06T01:21:31;24.17;;;10.55;;
29044;SDS011;16133;49.486;12.176;2022-11-06T01:24:02;24.60;;;11.43;;
29044;SDS011;16133;49.486;12.176;2022-11-06T01:26:37;21.00;;;10.35;;
29044;SDS011;16133;49.486;12.176;2022-11-06T01:29:03;23.90;;;11.77;;
29044;SDS011;16133;49.486;12.176;2022-11-06T01:31:31;23.45;;;11.70;;
29044;SDS011;16133;49.486;12.176;2022-11-06T01:33:58;22.02;;;10.55;;
29044;SDS011;16133;49.486;12.176;2022-11-06T01:36:25;23.33;;;11.65;;
29044;SDS011;16133;49.486;12.176;2022-11-06T01:38:51;27.10;;;11.68;;
29044;SDS011;16133;49.486;12.176;2022-11-06T01:41:23;23.38;;;11.40;;
29044;SDS011;16133;49.486;12.176;2022-11-06T01:46:57;25.98;;;11.23;;
29044;SDS011;16133;49.486;12.176;2022-11-06T01:49:23;22.55;;;11.32;;
29044;SDS011;16133;49.486;12.176;2022-11-06T01:51:54;26.52;;;11.38;;
29044;SDS011;16133;49.486;12.176;2022-11-06T01:54:23;25.08;;;11.57;;
29044;SDS011;16133;49.486;12.176;2022-11-06T01:56:51;23.55;;;10.77;;
29044;SDS011;16133;49.486;12.176;2022-11-06T01:59:20;24.17;;;10.52;;
29044;SDS011;16133;49.486;12.176;2022-11-06T02:01:48;20.52;;;9.40;;
29044;SDS011;16133;49.486;12.176;2022-11-06T02:04:16;20.30;;;8.68;;
29044;SDS011;16133;49.486;12.176;2022-11-06T02:06:45;20.58;;;10.10;;
29044;SDS011;16133;49.486;12.176;2022-11-06T02:09:11;20.90;;;9.82;;
29044;SDS011;16133;49.486;12.176;2022-11-06T02:11:41;19.33;;;9.60;;
29044;SDS011;16133;49.486;12.176;2022-11-06T02:16:45;20.65;;;9.27;;
29044;SDS011;16133;49.486;12.176;2022-11-06T02:24:49;22.38;;;10.38;;
29044;SDS011;16133;49.486;12.176;2022-11-06T02:27:35;30.52;;;12.02;;
29044;SDS011;16133;49.486;12.176;2022-11-06T02:30:02;27.83;;;12.00;;
29044;SDS011;16133;49.486;12.176;2022-11-06T02:35:10;34.97;;;13.40;;
29044;SDS011;16133;49.486;12.176;2022-11-06T02:37:43;31.88;;;14.57;;
29044;SDS011;16133;49.486;12.176;2022-11-06T02:40:11;33.00;;;12.98;;
29044;SDS011;16133;49.486;12.176;2022-11-06T02:42:40;32.30;;;12.23;;
29044;SDS011;16133;49.486;12.176;2022-11-06T02:45:10;31.13;;;12.73;;
29044;SDS011;16133;49.486;12.176;2022-11-06T02:47:39;28.60;;;12.90;;
29044;SDS011;16133;49.486;12.176;2022-11-06T02:50:18;25.60;;;11.20;;
29044;SDS011;16133;49.486;12.176;2022-11-06T02:52:50;30.38;;;12.35;;
29044;SDS011;16133;49.486;12.176;2022-11-06T02:55:42;33.35;;;13.25;;
29044;SDS011;16133;49.486;12.176;2022-11-06T02:58:13;35.10;;;14.07;;
29044;SDS011;16133;49.486;12.176;2022-11-06T03:00:50;30.45;;;13.57;;
29044;SDS011;16133;49.486;12.176;2022-11-06T03:03:24;32.88;;;13.38;;
29044;SDS011;16133;49.486;12.176;2022-11-06T03:05:53;31.98;;;13.52;;
29044;SDS011;16133;49.486;12.176;2022-11-06T03:08:29;37.33;;;13.95;;
29044;SDS011;16133;49.486;12.176;2022-11-06T03:11:05;32.63;;;13.65;;
29044;SDS011;16133;49.486;12.176;2022-11-06T03:13:57;30.95;;;13.05;;
29044;SDS011;16133;49.486;12.176;2022-11-06T03:22:10;36.10;;;14.50;;
29044;SDS011;16133;49.486;12.176;2022-11-06T03:27:40;36.80;;;13.33;;
29044;SDS011;16133;49.486;12.176;2022-11-06T03:30:10;33.70;;;14.02;;
29044;SDS011;16133;49.486;12.176;2022-11-06T03:32:38;33.20;;;14.00;;
29044;SDS011;16133;49.486;12.176;2022-11-06T03:35:12;34.10;;;12.60;;
29044;SDS011;16133;49.486;12.176;2022-11-06T03:38:00;29.00;;;12.32;;
29044;SDS011;16133;49.486;12.176;2022-11-06T03:40:35;28.73;;;12.50;;
29044;SDS011;16133;49.486;12.176;2022-11-06T03:43:06;35.40;;;14.57;;
29044;SDS011;16133;49.486;12.176;2022-11-06T03:45:34;43.08;;;15.80;;
29044;SDS011;16133;49.486;12.176;2022-11-06T03:50:34;35.97;;;14.70;;
29044;SDS011;16133;49.486;12.176;2022-11-06T03:53:14;39.88;;;14.23;;
29044;SDS011;16133;49.486;12.176;2022-11-06T03:55:52;29.52;;;12.40;;
29044;SDS011;16133;49.486;12.176;2022-11-06T03:58:26;34.30;;;14.18;;
29044;SDS011;16133;49.486;12.176;2022-11-06T04:00:56;31.55;;;14.18;;
29044;SDS011;16133;49.486;12.176;2022-11-06T04:03:28;30.00;;;13.30;;
29044;SDS011;16133;49.486;12.176;2022-11-06T04:08:34;27.83;;;12.63;;
29044;SDS011;16133;49.486;12.176;2022-11-06T04:11:19;30.27;;;12.63;;
29044;SDS011;16133;49.486;12.176;2022-11-06T04:14:07;25.13;;;11.75;;
29044;SDS011;16133;49.486;12.176;2022-11-06T04:16:35;30.65;;;12.20;;
29044;SDS011;16133;49.486;12.176;2022-11-06T04:19:05;28.45;;;11.73;;
29044;SDS011;16133;49.486;12.176;2022-11-06T04:27:37;40.58;;;15.07;;
29044;SDS011;16133;49.486;12.176;2022-11-06T04:30:10;41.05;;;16.15;;
29044;SDS011;16133;49.486;12.176;2022-11-06T04:35:43;36.42;;;14.90;;
29044;SDS011;16133;49.486;12.176;2022-11-06T04:38:32;38.63;;;14.98;;
29044;SDS011;16133;49.486;12.176;2022-11-06T04:44:06;38.05;;;14.40;;
29044;SDS011;16133;49.486;12.176;2022-11-06T04:46:39;37.22;;;13.98;;
29044;SDS011;16133;49.486;12.176;2022-11-06T04:49:11;40.72;;;15.27;;
29044;SDS011;16133;49.486;12.176;2022-11-06T04:51:38;34.17;;;14.48;;
29044;SDS011;16133;49.486;12.176;2022-11-06T04:54:07;38.63;;;14.73;;
29044;SDS011;16133;49.486;12.176;2022-11-06T04:56:35;41.92;;;15.13;;
29044;SDS011;16133;49.486;12.176;2022-11-06T04:59:01;36.00;;;14.30;;
29044;SDS011;16133;49.486;12.176;2022-11-06T05:01:27;39.55;;;14.65;;
29044;SDS011;16133;49.486;12.176;2022-11-06T05:03:53;36.53;;;15.20;;
29044;SDS011;16133;49.486;12.176;2022-11-06T05:06:18;33.95;;;13.90;;
29044;SDS011;16133;49.486;12.176;2022-11-06T05:08:44;36.92;;;14.68;;
29044;SDS011;16133;49.486;12.176;2022-11-06T05:11:10;40.33;;;16.40;;
29044;SDS011;16133;49.486;12.176;2022-11-06T05:13:35;38.45;;;14.00;;
29044;SDS011;16133;49.486;12.176;2022-11-06T05:16:02;34.85;;;14.48;;
29044;SDS011;16133;49.486;12.176;2022-11-06T05:18:28;38.60;;;14.90;;
29044;SDS011;16133;49.486;12.176;2022-11-06T05:20:54;43.20;;;15.63;;
29044;SDS011;16133;49.486;12.176;2022-11-06T05:23:41;33.00;;;13.82;;
29044;SDS011;16133;49.486;12.176;2022-11-06T05:26:07;37.28;;;14.43;;
29044;SDS011;16133;49.486;12.176;2022-11-06T05:28:32;36.17;;;14.52;;
29044;SDS011;16133;49.486;12.176;2022-11-06T05:30:58;36.08;;;13.25;;
29044;SDS011;16133;49.486;12.176;2022-11-06T05:33:27;33.88;;;13.70;;
29044;SDS011;16133;49.486;12.176;2022-11-06T05:35:52;33.80;;;14.38;;
29044;SDS011;16133;49.486;12.176;2022-11-06T05:38:17;31.70;;;13.82;;
29044;SDS011;16133;49.486;12.176;2022-11-06T05:40:43;36.03;;;13.85;;
29044;SDS011;16133;49.486;12.176;2022-11-06T05:43:09;30.75;;;11.40;;
29044;SDS011;16133;49.486;12.176;2022-11-06T05:45:34;31.83;;;12.80;;
29044;SDS011;16133;49.486;12.176;2022-11-06T05:47:59;30.27;;;12.38;;
29044;SDS011;16133;49.486;12.176;2022-11-06T05:50:25;30.77;;;12.07;;
29044;SDS011;16133;49.486;12.176;2022-11-06T05:52:50;33.17;;;11.43;;
29044;SDS011;16133;49.486;12.176;2022-11-06T05:55:16;31.90;;;11.80;;
29044;SDS011;16133;49.486;12.176;2022-11-06T05:57:42;31.92;;;13.05;;
29044;SDS011;16133;49.486;12.176;2022-11-06T06:00:07;34.42;;;13.48;;
29044;SDS011;16133;49.486;12.176;2022-11-06T06:02:35;34.13;;;12.38;;
29044;SDS011;16133;49.486;12.176;2022-11-06T06:05:01;32.33;;;12.85;;
29044;SDS011;16133;49.486;12.176;2022-11-06T06:07:27;27.02;;;12.60;;
29044;SDS011;16133;49.486;12.176;2022-11-06T06:09:53;31.63;;;13.18;;
29044;SDS011;16133;49.486;12.176;2022-11-06T06:12:18;31.65;;;12.80;;
29044;SDS011;16133;49.486;12.176;2022-11-06T06:14:44;30.73;;;13.23;;
29044;SDS011;16133;49.486;12.176;2022-11-06T06:17:09;31.95;;;14.13;;
29044;SDS011;16133;49.486;12.176;2022-11-06T06:19:35;34.10;;;13.15;;
29044;SDS011;16133;49.486;12.176;2022-11-06T06:22:00;29.40;;;12.55;;
29044;SDS011;16133;49.486;12.176;2022-11-06T06:24:26;28.77;;;13.45;;
29044;SDS011;16133;49.486;12.176;2022-11-06T06:26:51;34.70;;;14.23;;
29044;SDS011;16133;49.486;12.176;2022-11-06T06:29:16;34.78;;;12.88;;
29044;SDS011;16133;49.486;12.176;2022-11-06T06:31:42;31.73;;;13.70;;
29044;SDS011;16133;49.486;12.176;2022-11-06T06:34:08;31.02;;;13.35;;
29044;SDS011;16133;49.486;12.176;2022-11-06T06:36:33;32.67;;;13.73;;
29044;SDS011;16133;49.486;12.176;2022-11-06T06:38:59;31.02;;;13.02;;
29044;SDS011;16133;49.486;12.176;2022-11-06T06:41:24;34.42;;;13.25;;
29044;SDS011;16133;49.486;12.176;2022-11-06T06:43:49;37.65;;;14.80;;
29044;SDS011;16133;49.486;12.176;2022-11-06T06:46:15;31.90;;;13.80;;
29044;SDS011;16133;49.486;12.176;2022-11-06T06:48:41;35.10;;;13.75;;
29044;SDS011;16133;49.486;12.176;2022-11-06T06:51:06;36.63;;;14.13;;
29044;SDS011;16133;49.486;12.176;2022-11-06T06:53:32;32.83;;;13.25;;
29044;SDS011;16133;49.486;12.176;2022-11-06T06:55:58;31.15;;;13.55;;
29044;SDS011;16133;49.486;12.176;2022-11-06T06:58:24;30.58;;;13.27;;
29044;SDS011;16133;49.486;12.176;2022-11-06T07:00:51;29.20;;;12.55;;
29044;SDS011;16133;49.486;12.176;2022-11-06T07:03:16;28.77;;;12.70;;
29044;SDS011;16133;49.486;12.176;2022-11-06T07:05:42;32.70;;;13.68;;
29044;SDS011;16133;49.486;12.176;2022-11-06T07:08:07;32.38;;;12.73;;
29044;SDS011;16133;49.486;12.176;2022-11-06T07:10:33;32.22;;;13.30;;
29044;SDS011;16133;49.486;12.176;2022-11-06T07:13:02;31.42;;;13.02;;
29044;SDS011;16133;49.486;12.176;2022-11-06T07:15:28;29.40;;;11.77;;
29044;SDS011;16133;49.486;12.176;2022-11-06T07:17:54;33.67;;;14.20;;
29044;SDS011;16133;49.486;12.176;2022-11-06T07:20:24;30.10;;;11.93;;
29044;SDS011;16133;49.486;12.176;2022-11-06T07:22:50;32.47;;;12.40;;
29044;SDS011;16133;49.486;12.176;2022-11-06T07:25:15;30.77;;;12.40;;
29044;SDS011;16133;49.486;12.176;2022-11-06T07:27:41;28.80;;;12.50;;
29044;SDS011;16133;49.486;12.176;2022-11-06T07:30:06;28.73;;;12.65;;
29044;SDS011;16133;49.486;12.176;2022-11-06T07:32:32;25.75;;;12.00;;
29044;SDS011;16133;49.486;12.176;2022-11-06T07:34:57;27.42;;;11.13;;
29044;SDS011;16133;49.486;12.176;2022-11-06T07:37:23;24.55;;;11.07;;
29044;SDS011;16133;49.486;12.176;2022-11-06T07:39:48;28.35;;;11.98;;
29044;SDS011;16133;49.486;12.176;2022-11-06T07:42:13;29.55;;;11.65;;
29044;SDS011;16133;49.486;12.176;2022-11-06T07:44:39;30.52;;;12.05;;
29044;SDS011;16133;49.486;12.176;2022-11-06T07:47:04;29.73;;;11.55;;
29044;SDS011;16133;49.486;12.176;2022-11-06T07:49:29;25.17;;;11.07;;
29044;SDS011;16133;49.486;12.176;2022-11-06T07:51:55;28.27;;;12.18;;
29044;SDS011;16133;49.486;12.176;2022-11-06T07:54:20;28.73;;;12.38;;
29044;SDS011;16133;49.486;12.176;2022-11-06T07:56:46;29.67;;;12.25;;
29044;SDS011;16133;49.486;12.176;2022-11-06T07:59:11;26.30;;;12.35;;
29044;SDS011;16133;49.486;12.176;2022-11-06T08:01:36;33.03;;;14.93;;
29044;SDS011;16133;49.486;12.176;2022-11-06T08:04:02;60.80;;;25.00;;
29044;SDS011;16133;49.486;12.176;2022-11-06T08:06:27;55.45;;;23.70;;
29044;SDS011;16133;49.486;12.176;2022-11-06T08:08:53;36.55;;;16.20;;
29044;SDS011;16133;49.486;12.176;2022-11-06T08:11:18;30.77;;;13.18;;
29044;SDS011;16133;49.486;12.176;2022-11-06T08:13:43;25.08;;;11.70;;
29044;SDS011;16133;49.486;12.176;2022-11-06T08:16:10;24.98;;;10.90;;
29044;SDS011;16133;49.486;12.176;2022-11-06T08:18:37;24.50;;;10.07;;
29044;SDS011;16133;49.486;12.176;2022-11-06T08:21:03;21.45;;;9.93;;
29044;SDS011;16133;49.486;12.176;2022-11-06T08:23:29;20.52;;;9.70;;
29044;SDS011;16133;49.486;12.176;2022-11-06T08:25:56;19.73;;;9.15;;
29044;SDS011;16133;49.486;12.176;2022-11-06T08:28:23;22.33;;;9.52;;
29044;SDS011;16133;49.486;12.176;2022-11-06T08:30:49;20.45;;;9.57;;
29044;SDS011;16133;49.486;12.176;2022-11-06T08:33:15;21.70;;;9.55;;
29044;SDS011;16133;49.486;12.176;2022-11-06T08:35:41;28.45;;;10.95;;
29044;SDS011;16133;49.486;12.176;2022-11-06T08:38:06;20.52;;;9.75;;
29044;SDS011;16133;49.486;12.176;2022-11-06T08:40:32;24.20;;;10.20;;
29044;SDS011;16133;49.486;12.176;2022-11-06T08:43:01;25.48;;;11.25;;
29044;SDS011;16133;49.486;12.176;2022-11-06T08:45:28;26.08;;;10.68;;
29044;SDS011;16133;49.486;12.176;2022-11-06T08:47:53;23.08;;;9.52;;
29044;SDS011;16133;49.486;12.176;2022-11-06T08:50:19;19.88;;;9.38;;
29044;SDS011;16133;49.486;12.176;2022-11-06T08:52:44;20.42;;;9.45;;
29044;SDS011;16133;49.486;12.176;2022-11-06T08:55:10;21.02;;;9.73;;
29044;SDS011;16133;49.486;12.176;2022-11-06T08:57:35;26.25;;;10.63;;
29044;SDS011;16133;49.486;12.176;2022-11-06T09:00:00;22.92;;;10.63;;
29044;SDS011;16133;49.486;12.176;2022-11-06T09:02:26;19.70;;;9.05;;
29044;SDS011;16133;49.486;12.176;2022-11-06T09:04:51;16.33;;;8.57;;
29044;SDS011;16133;49.486;12.176;2022-11-06T09:07:17;20.42;;;9.60;;
29044;SDS011;16133;49.486;12.176;2022-11-06T09:09:42;17.85;;;8.18;;
29044;SDS011;16133;49.486;12.176;2022-11-06T09:12:07;18.58;;;8.75;;
29044;SDS011;16133;49.486;12.176;2022-11-06T09:14:33;14.57;;;7.65;;
29044;SDS011;16133;49.486;12.176;2022-11-06T09:16:59;13.65;;;7.13;;
29044;SDS011;16133;49.486;12.176;2022-11-06T09:19:24;16.40;;;7.50;;
29044;SDS011;16133;49.486;12.176;2022-11-06T09:21:50;17.52;;;7.70;;
29044;SDS011;16133;49.486;12.176;2022-11-06T09:24:15;18.00;;;7.82;;
29044;SDS011;16133;49.486;12.176;2022-11-06T09:26:40;16.77;;;8.10;;
29044;SDS011;16133;49.486;12.176;2022-11-06T09:29:06;15.85;;;7.72;;
29044;SDS011;16133;49.486;12.176;2022-11-06T09:31:31;17.50;;;8.02;;
29044;SDS011;16133;49.486;12.176;2022-11-06T09:33:57;16.80;;;8.35;;
29044;SDS011;16133;49.486;12.176;2022-11-06T09:36:22;18.45;;;7.80;;
29044;SDS011;16133;49.486;12.176;2022-11-06T09:38:48;19.23;;;8.18;;
29044;SDS011;16133;49.486;12.176;2022-11-06T09:47:01;14.80;;;6.90;;
29044;SDS011;16133;49.486;12.176;2022-11-06T09:49:35;14.70;;;7.10;;
29044;SDS011;16133;49.486;12.176;2022-11-06T09:54:55;17.38;;;7.70;;
29044;SDS011;16133;49.486;12.176;2022-11-06T09:57:47;15.20;;;7.47;;
29044;SDS011;16133;49.486;12.176;2022-11-06T10:00:31;18.00;;;7.43;;
29044;SDS011;16133;49.486;12.176;2022-11-06T10:03:04;17.10;;;8.68;;
29044;SDS011;16133;49.486;12.176;2022-11-06T10:05:38;13.73;;;7.80;;
29044;SDS011;16133;49.486;12.176;2022-11-06T10:08:08;14.35;;;7.50;;
29044;SDS011;16133;49.486;12.176;2022-11-06T10:15:56;13.13;;;7.13;;
29044;SDS011;16133;49.486;12.176;2022-11-06T10:23:56;13.68;;;7.20;;
29044;SDS011;16133;49.486;12.176;2022-11-06T10:26:36;14.48;;;7.22;;
29044;SDS011;16133;49.486;12.176;2022-11-06T10:39:21;13.27;;;6.85;;
29044;SDS011;16133;49.486;12.176;2022-11-06T10:41:54;17.90;;;6.95;;
29044;SDS011;16133;49.486;12.176;2022-11-06T10:47:09;14.48;;;7.15;;
29044;SDS011;16133;49.486;12.176;2022-11-06T10:57:56;17.10;;;8.65;;
29044;SDS011;16133;49.486;12.176;2022-11-06T11:02:51;14.23;;;7.82;;
29044;SDS011;16133;49.486;12.176;2022-11-06T11:05:22;9.15;;;5.30;;
29044;SDS011;16133;49.486;12.176;2022-11-06T11:07:50;11.00;;;6.55;;
29044;SDS011;16133;49.486;12.176;2022-11-06T11:12:47;11.02;;;6.25;;
29044;SDS011;16133;49.486;12.176;2022-11-06T11:15:14;12.43;;;6.63;;
29044;SDS011;16133;49.486;12.176;2022-11-06T11:17:43;11.30;;;5.93;;
29044;SDS011;16133;49.486;12.176;2022-11-06T11:20:34;12.60;;;6.32;;
29044;SDS011;16133;49.486;12.176;2022-11-06T11:25:42;12.82;;;6.72;;
29044;SDS011;16133;49.486;12.176;2022-11-06T11:28:28;12.93;;;6.88;;
29044;SDS011;16133;49.486;12.176;2022-11-06T11:33:31;9.50;;;5.68;;
29044;SDS011;16133;49.486;12.176;2022-11-06T11:35:57;14.77;;;7.18;;
29044;SDS011;16133;49.486;12.176;2022-11-06T11:38:23;10.90;;;6.13;;
29044;SDS011;16133;49.486;12.176;2022-11-06T11:40:50;13.07;;;7.97;;
29044;SDS011;16133;49.486;12.176;2022-11-06T11:43:20;14.93;;;8.10;;
29044;SDS011;16133;49.486;12.176;2022-11-06T11:46:04;14.30;;;8.05;;
29044;SDS011;16133;49.486;12.176;2022-11-06T11:48:42;14.50;;;7.33;;
29044;SDS011;16133;49.486;12.176;2022-11-06T11:51:11;12.88;;;6.45;;
29044;SDS011;16133;49.486;12.176;2022-11-06T11:53:41;13.10;;;6.97;;
29044;SDS011;16133;49.486;12.176;2022-11-06T11:56:07;9.88;;;5.97;;
29044;SDS011;16133;49.486;12.176;2022-11-06T11:58:39;14.88;;;7.25;;
29044;SDS011;16133;49.486;12.176;2022-11-06T12:01:04;11.52;;;6.50;;
29044;SDS011;16133;49.486;12.176;2022-11-06T12:03:42;11.85;;;5.70;;
29044;SDS011;16133;49.486;12.176;2022-11-06T12:06:14;11.30;;;6.57;;
29044;SDS011;16133;49.486;12.176;2022-11-06T12:08:46;10.45;;;5.97;;
29044;SDS011;16133;49.486;12.176;2022-11-06T12:11:17;10.85;;;5.78;;
29044;SDS011;16133;49.486;12.176;2022-11-06T12:14:14;12.05;;;5.53;;
29044;SDS011;16133;49.486;12.176;2022-11-06T12:16:40;10.57;;;6.05;;
29044;SDS011;16133;49.486;12.176;2022-11-06T12:19:07;11.35;;;6.55;;
29044;SDS011;16133;49.486;12.176;2022-11-06T12:21:34;11.73;;;6.18;;
29044;SDS011;16133;49.486;12.176;2022-11-06T12:24:09;12.57;;;6.80;;
29044;SDS011;16133;49.486;12.176;2022-11-06T12:29:10;12.10;;;7.18;;
29044;SDS011;16133;49.486;12.176;2022-11-06T12:34:13;11.45;;;6.82;;
29044;SDS011;16133;49.486;12.176;2022-11-06T12:36:48;10.32;;;6.25;;
29044;SDS011;16133;49.486;12.176;2022-11-06T12:39:35;9.05;;;5.63;;
29044;SDS011;16133;49.486;12.176;2022-11-06T12:42:03;10.98;;;6.68;;
29044;SDS011;16133;49.486;12.176;2022-11-06T12:44:31;9.25;;;5.75;;
29044;SDS011;16133;49.486;12.176;2022-11-06T12:47:02;10.30;;;5.85;;
29044;SDS011;16133;49.486;12.176;2022-11-06T13:00:21;11.82;;;6.45;;
29044;SDS011;16133;49.486;12.176;2022-11-06T13:05:35;8.82;;;5.43;;
29044;SDS011;16133;49.486;12.176;2022-11-06T13:11:05;10.23;;;6.03;;
29044;SDS011;16133;49.486;12.176;2022-11-06T13:22:41;11.68;;;6.18;;
29044;SDS011;16133;49.486;12.176;2022-11-06T13:27:30;10.25;;;5.60;;
29044;SDS011;16133;49.486;12.176;2022-11-06T13:30:11;11.10;;;6.00;;
29044;SDS011;16133;49.486;12.176;2022-11-06T13:32:43;12.57;;;6.65;;
29044;SDS011;16133;49.486;12.176;2022-11-06T13:37:50;11.13;;;5.68;;
29044;SDS011;16133;49.486;12.176;2022-11-06T13:40:29;10.40;;;5.72;;
29044;SDS011;16133;49.486;12.176;2022-11-06T13:43:05;15.75;;;6.47;;
29044;SDS011;16133;49.486;12.176;2022-11-06T13:48:42;12.35;;;6.03;;
29044;SDS011;16133;49.486;12.176;2022-11-06T13:54:00;13.25;;;7.13;;
29044;SDS011;16133;49.486;12.176;2022-11-06T14:04:15;14.35;;;7.45;;
29044;SDS011;16133;49.486;12.176;2022-11-06T14:07:13;13.32;;;7.15;;
29044;SDS011;16133;49.486;12.176;2022-11-06T14:09:42;12.73;;;6.65;;
29044;SDS011;16133;49.486;12.176;2022-11-06T14:12:27;16.58;;;6.70;;
29044;SDS011;16133;49.486;12.176;2022-11-06T14:15:10;11.95;;;6.63;;
29044;SDS011;16133;49.486;12.176;2022-11-06T14:17:39;16.75;;;7.38;;
29044;SDS011;16133;49.486;12.176;2022-11-06T14:20:38;14.75;;;7.70;;
29044;SDS011;16133;49.486;12.176;2022-11-06T14:25:58;14.70;;;7.80;;
29044;SDS011;16133;49.486;12.176;2022-11-06T14:28:38;18.15;;;7.93;;
29044;SDS011;16133;49.486;12.176;2022-11-06T14:31:08;14.73;;;8.02;;
29044;SDS011;16133;49.486;12.176;2022-11-06T14:38:47;16.30;;;7.75;;
29044;SDS011;16133;49.486;12.176;2022-11-06T14:43:58;17.95;;;8.07;;
29044;SDS011;16133;49.486;12.176;2022-11-06T14:46:30;15.77;;;7.90;;
29044;SDS011;16133;49.486;12.176;2022-11-06T14:52:06;16.13;;;7.03;;
29044;SDS011;16133;49.486;12.176;2022-11-06T14:54:35;18.17;;;7.25;;
29044;SDS011;16133;49.486;12.176;2022-11-06T14:57:04;13.60;;;7.05;;
29044;SDS011;16133;49.486;12.176;2022-11-06T14:59:35;16.00;;;7.43;;
29044;SDS011;16133;49.486;12.176;2022-11-06T15:02:11;16.25;;;7.32;;
29044;SDS011;16133;49.486;12.176;2022-11-06T15:09:58;20.30;;;8.35;;
29044;SDS011;16133;49.486;12.176;2022-11-06T15:15:26;18.70;;;8.68;;
29044;SDS011;16133;49.486;12.176;2022-11-06T15:17:53;17.20;;;8.13;;
29044;SDS011;16133;49.486;12.176;2022-11-06T15:20:25;15.00;;;7.25;;
29044;SDS011;16133;49.486;12.176;2022-11-06T15:25:34;17.80;;;8.07;;
29044;SDS011;16133;49.486;12.176;2022-11-06T15:28:10;17.67;;;8.82;;
29044;SDS011;16133;49.486;12.176;2022-11-06T15:30:51;19.80;;;8.05;;
29044;SDS011;16133;49.486;12.176;2022-11-06T15:33:34;18.10;;;9.07;;
29044;SDS011;16133;49.486;12.176;2022-11-06T15:36:11;19.17;;;8.77;;
29044;SDS011;16133;49.486;12.176;2022-11-06T15:38:40;21.95;;;9.23;;
29044;SDS011;16133;49.486;12.176;2022-11-06T15:41:10;22.13;;;8.68;;
29044;SDS011;16133;49.486;12.176;2022-11-06T15:43:40;18.47;;;9.10;;
29044;SDS011;16133;49.486;12.176;2022-11-06T15:46:17;18.75;;;8.30;;
29044;SDS011;16133;49.486;12.176;2022-11-06T15:54:37;19.27;;;8.70;;
29044;SDS011;16133;49.486;12.176;2022-11-06T15:57:09;16.52;;;7.82;;
29044;SDS011;16133;49.486;12.176;2022-11-06T15:59:48;16.55;;;7.47;;
29044;SDS011;16133;49.486;12.176;2022-11-06T16:02:18;17.17;;;7.70;;
29044;SDS011;16133;49.486;12.176;2022-11-06T16:04:46;20.85;;;8.30;;
29044;SDS011;16133;49.486;12.176;2022-11-06T16:07:13;16.73;;;8.00;;
29044;SDS011;16133;49.486;12.176;2022-11-06T16:09:41;13.65;;;7.03;;
29044;SDS011;16133;49.486;12.176;2022-11-06T16:12:14;15.52;;;8.52;;
29044;SDS011;16133;49.486;12.176;2022-11-06T16:14:41;26.38;;;10.20;;
29044;SDS011;16133;49.486;12.176;2022-11-06T16:17:21;24.27;;;11.95;;
29044;SDS011;16133;49.486;12.176;2022-11-06T16:19:49;28.42;;;13.30;;
29044;SDS011;16133;49.486;12.176;2022-11-06T16:22:17;29.55;;;12.95;;
29044;SDS011;16133;49.486;12.176;2022-11-06T16:24:52;26.35;;;13.60;;
29044;SDS011;16133;49.486;12.176;2022-11-06T16:27:21;35.90;;;15.45;;
29044;SDS011;16133;49.486;12.176;2022-11-06T16:29:48;29.10;;;13.20;;
29044;SDS011;16133;49.486;12.176;2022-11-06T16:32:19;33.58;;;14.18;;
29044;SDS011;16133;49.486;12.176;2022-11-06T16:34:47;30.63;;;12.88;;
29044;SDS011;16133;49.486;12.176;2022-11-06T16:49:37;23.60;;;10.88;;
29044;SDS011;16133;49.486;12.176;2022-11-06T16:57:26;31.15;;;13.55;;
29044;SDS011;16133;49.486;12.176;2022-11-06T17:00:03;30.20;;;12.50;;
29044;SDS011;16133;49.486;12.176;2022-11-06T17:02:33;43.78;;;17.50;;
29044;SDS011;16133;49.486;12.176;2022-11-06T17:05:05;47.00;;;16.67;;
29044;SDS011;16133;49.486;12.176;2022-11-06T17:07:32;40.10;;;16.50;;
29044;SDS011;16133;49.486;12.176;2022-11-06T17:10:22;49.90;;;19.10;;
29044;SDS011;16133;49.486;12.176;2022-11-06T17:12:49;42.63;;;16.90;;
29044;SDS011;16133;49.486;12.176;2022-11-06T17:15:15;42.97;;;17.23;;
29044;SDS011;16133;49.486;12.176;2022-11-06T17:17:40;41.17;;;15.68;;
29044;SDS011;16133;49.486;12.176;2022-11-06T17:20:16;36.17;;;15.13;;
29044;SDS011;16133;49.486;12.176;2022-11-06T17:22:43;33.92;;;15.32;;
29044;SDS011;16133;49.486;12.176;2022-11-06T17:25:10;37.58;;;16.42;;
29044;SDS011;16133;49.486;12.176;2022-11-06T17:27:35;28.38;;;12.77;;
29044;SDS011;16133;49.486;12.176;2022-11-06T17:30:00;39.95;;;15.90;;
29044;SDS011;16133;49.486;12.176;2022-11-06T17:32:26;57.08;;;21.92;;
29044;SDS011;16133;49.486;12.176;2022-11-06T17:34:51;62.85;;;25.58;;